Weather reports worldwide

Advertisment
Grottaglie, Italy (16324): temperature & dewpoint: 18.06.2018 11:00:00 - 24.06.2018 11:00:00 (CEST)Grottaglie, Italy (16324): wind speed: 18.06.2018 11:00:00 - 24.06.2018 11:00:00 (CEST)Grottaglie, Italy (16324): wind direction: 18.06.2018 11:00:00 - 24.06.2018 11:00:00 (CEST)Grottaglie, Italy (16324): visibility: 18.06.2018 11:00:00 - 24.06.2018 11:00:00 (CEST)
Date & Time tt [°C] td [°C] ff [km/h] ff [kn] dd vv [km]
24.06.2018 11:00:00 25,0 9,0 18 10 N 10
24.06.2018 10:00:00 24,0 9,0 21 11 N 10
24.06.2018 09:00:00 23,0 11,0 18 10 NNW 10
24.06.2018 08:00:00 22,0 12,0 16 9 NW 10
24.06.2018 07:00:00 - - - - - -
24.06.2018 06:00:00 - - - - - -
24.06.2018 05:00:00 - - - - - -
24.06.2018 04:00:00 - - - - - -
24.06.2018 03:00:00 - - - - - -
24.06.2018 02:00:00 - - - - - -
24.06.2018 01:00:00 - - - - - -
24.06.2018 00:00:00 - - - - - -
23.06.2018 23:00:00 - - - - - -
23.06.2018 22:00:00 - - - - - -
23.06.2018 21:00:00 - - - - - -
23.06.2018 20:00:00 22,0 10,0 21 11 N 10
23.06.2018 19:00:00 24,0 10,0 24 13 N 10
23.06.2018 18:00:00 25,0 10,0 24 13 N 10
23.06.2018 17:00:00 26,0 9,0 24 13 NNE 10
23.06.2018 16:00:00 26,0 9,0 24 13 NNE 10
23.06.2018 15:00:00 27,0 10,0 24 13 N 10
23.06.2018 14:00:00 26,0 10,0 22 12 N 10
23.06.2018 13:00:00 25,0 14,0 26 14 NNE 10
23.06.2018 12:00:00 23,0 16,0 26 14 N 10
23.06.2018 11:00:00 24,0 16,0 22 12 NE 10
23.06.2018 10:00:00 23,0 16,0 28 15 N 10
23.06.2018 09:00:00 24,0 15,0 26 14 N 10
23.06.2018 08:00:00 23,0 16,0 18 10 NNW 10
23.06.2018 07:00:00 - - - - - -
23.06.2018 06:00:00 - - - - - -
23.06.2018 05:00:00 - - - - - -
23.06.2018 04:00:00 - - - - - -
23.06.2018 03:00:00 - - - - - -
23.06.2018 02:00:00 - - - - - -
23.06.2018 01:00:00 - - - - - -
23.06.2018 00:00:00 - - - - - -
22.06.2018 23:00:00 - - - - - -
22.06.2018 22:00:00 - - - - - -
22.06.2018 21:00:00 - - - - - -
22.06.2018 20:00:00 26,0 18,0 13 7 S 10
22.06.2018 19:00:00 27,0 17,0 16 9 S 10
22.06.2018 18:00:00 29,0 15,0 21 11 S 10
22.06.2018 17:00:00 30,0 15,0 18 10 SSW 10
22.06.2018 16:00:00 31,0 13,0 15 8 SSW 10
22.06.2018 15:00:00 30,0 12,0 13 7 SW 10
22.06.2018 14:00:00 30,0 13,0 11 6 WSW 10
22.06.2018 13:00:00 29,0 14,0 11 6 SW 10
22.06.2018 12:00:00 28,0 13,0 13 7 SW 10
22.06.2018 11:00:00 29,0 14,0 13 7 W 10
22.06.2018 10:00:00 27,0 18,0 8 4 WSW 10
22.06.2018 09:00:00 26,0 19,0 5 3 WSW 10
22.06.2018 08:00:00 24,0 19,0 4 2 W 10
22.06.2018 07:00:00 - - - - - -
22.06.2018 06:00:00 - - - - - -
22.06.2018 05:00:00 - - - - - -
22.06.2018 04:00:00 - - - - - -
22.06.2018 03:00:00 - - - - - -
22.06.2018 02:00:00 - - - - - -
22.06.2018 01:00:00 - - - - - -
22.06.2018 00:00:00 - - - - - -
21.06.2018 23:00:00 - - - - - -
21.06.2018 22:00:00 - - - - - -
21.06.2018 21:00:00 - - - - - -
21.06.2018 20:00:00 27,0 15,0 11 6 WSW 10
21.06.2018 19:00:00 29,0 14,0 9 5 SSW 10
21.06.2018 18:00:00 30,0 16,0 8 4 N 10
21.06.2018 17:00:00 29,0 16,0 8 4 N 10
21.06.2018 16:00:00 29,0 17,0 5 3 N 10
21.06.2018 15:00:00 28,0 17,0 13 7 NNW 10
21.06.2018 14:00:00 26,0 19,0 0 0 N 10
21.06.2018 13:00:00 28,0 18,0 9 5 - 10
21.06.2018 12:00:00 29,0 17,0 8 4 WSW 10
21.06.2018 11:00:00 28,0 16,0 8 4 SW 10
21.06.2018 10:00:00 28,0 16,0 4 2 WNW 10
21.06.2018 09:00:00 25,0 18,0 0 0 N 10
21.06.2018 08:00:00 24,0 19,0 0 0 N 10
21.06.2018 07:00:00 - - - - - -
21.06.2018 06:00:00 - - - - - -
21.06.2018 05:00:00 - - - - - -
21.06.2018 04:00:00 - - - - - -
21.06.2018 03:00:00 - - - - - -
21.06.2018 02:00:00 - - - - - -
21.06.2018 01:00:00 - - - - - -
21.06.2018 00:00:00 - - - - - -
20.06.2018 23:00:00 - - - - - -
20.06.2018 22:00:00 21,0 19,0 9 5 NNE 10
20.06.2018 21:00:00 21,0 20,0 8 4 ENE 10
20.06.2018 20:00:00 23,0 21,0 4 2 W 10
20.06.2018 19:00:00 23,0 20,0 4 2 NE 10
20.06.2018 18:00:00 23,0 20,0 0 0 N 10
20.06.2018 17:00:00 20,0 18,0 9 5 NW 10
20.06.2018 16:00:00 19,0 17,0 18 10 ENE 8
20.06.2018 15:00:00 21,0 18,0 39 21 N 8
20.06.2018 14:00:00 23,0 17,0 18 10 SW 10
20.06.2018 13:00:00 30,0 16,0 11 6 SE 10
20.06.2018 12:00:00 30,0 16,0 8 4 E 10
20.06.2018 11:00:00 29,0 17,0 9 5 E 10
20.06.2018 10:00:00 28,0 18,0 13 7 ENE 10
20.06.2018 09:00:00 27,0 18,0 15 8 NE 10
20.06.2018 08:00:00 25,0 19,0 11 6 N 10
20.06.2018 07:00:00 - - - - - -
20.06.2018 06:00:00 - - - - - -
20.06.2018 05:00:00 - - - - - -
20.06.2018 04:00:00 - - - - - -
20.06.2018 03:00:00 - - - - - -
20.06.2018 02:00:00 - - - - - -
20.06.2018 01:00:00 - - - - - -
20.06.2018 00:00:00 - - - - - -
19.06.2018 23:00:00 - - - - - -
19.06.2018 22:00:00 - - - - - -
19.06.2018 21:00:00 - - - - - -
19.06.2018 20:00:00 27,0 14,0 21 11 NNE 10
19.06.2018 19:00:00 28,0 13,0 24 13 N 10
19.06.2018 18:00:00 29,0 16,0 22 12 NNE 10
19.06.2018 17:00:00 29,0 15,0 24 13 N 10
19.06.2018 16:00:00 29,0 13,0 21 11 N 10
19.06.2018 15:00:00 - - - - - -
19.06.2018 14:00:00 30,0 13,0 24 13 N 10
19.06.2018 13:00:00 30,0 14,0 26 14 NNE 10
19.06.2018 12:00:00 30,0 13,0 22 12 NNE 10
19.06.2018 11:00:00 29,0 15,0 24 13 N 10
19.06.2018 10:00:00 28,0 16,0 26 14 NE 10
19.06.2018 09:00:00 27,0 16,0 28 15 NE 10
19.06.2018 08:00:00 27,0 18,0 21 11 NE 10
19.06.2018 07:00:00 - - - - - -
19.06.2018 06:00:00 - - - - - -
19.06.2018 05:00:00 - - - - - -
19.06.2018 04:00:00 - - - - - -
19.06.2018 03:00:00 - - - - - -
19.06.2018 02:00:00 - - - - - -
19.06.2018 01:00:00 - - - - - -
19.06.2018 00:00:00 - - - - - -
18.06.2018 23:00:00 - - - - - -
18.06.2018 22:00:00 - - - - - -
18.06.2018 21:00:00 - - - - - -
18.06.2018 20:00:00 26,0 18,0 21 11 N 10
18.06.2018 19:00:00 28,0 16,0 21 11 N 10
18.06.2018 18:00:00 30,0 15,0 15 8 N 10
18.06.2018 17:00:00 29,0 15,0 16 9 N 10
18.06.2018 16:00:00 30,0 14,0 16 9 N 10
18.06.2018 15:00:00 30,0 14,0 18 10 NNE 10
18.06.2018 14:00:00 30,0 16,0 13 7 NNE 10
18.06.2018 13:00:00 30,0 17,0 18 10 NNE 10
18.06.2018 12:00:00 29,0 16,0 16 9 N 10
18.06.2018 11:00:00 28,0 17,0 15 8 N 10

tt = temperature
td = dewpoint
ff = wind speed
dd = wind direction
vv = visibility

Next stations